sensor_id;sensor_type;location;lat;lon;timestamp;P1;durP1;ratioP1;P2;durP2;ratioP2
795;SDS011;381;48.770;9.188;2023-12-07T00:04:43;12.00;;;9.07;;
795;SDS011;381;48.770;9.188;2023-12-07T00:09:46;10.07;;;9.07;;
795;SDS011;381;48.770;9.188;2023-12-07T00:14:48;9.70;;;8.80;;
795;SDS011;381;48.770;9.188;2023-12-07T00:19:50;8.73;;;7.93;;
795;SDS011;381;48.770;9.188;2023-12-07T00:24:55;8.30;;;7.50;;
795;SDS011;381;48.770;9.188;2023-12-07T00:29:57;9.43;;;7.57;;
795;SDS011;381;48.770;9.188;2023-12-07T00:34:59;8.07;;;6.90;;
795;SDS011;381;48.770;9.188;2023-12-07T00:40:02;8.70;;;8.00;;
795;SDS011;381;48.770;9.188;2023-12-07T00:45:04;8.93;;;8.03;;
795;SDS011;381;48.770;9.188;2023-12-07T00:50:07;8.30;;;7.57;;
795;SDS011;381;48.770;9.188;2023-12-07T00:55:11;7.67;;;6.87;;
795;SDS011;381;48.770;9.188;2023-12-07T01:00:13;8.10;;;7.30;;
795;SDS011;381;48.770;9.188;2023-12-07T01:05:15;8.93;;;6.70;;
795;SDS011;381;48.770;9.188;2023-12-07T01:10:18;7.97;;;7.20;;
795;SDS011;381;48.770;9.188;2023-12-07T01:15:20;7.53;;;6.93;;
795;SDS011;381;48.770;9.188;2023-12-07T01:20:22;7.60;;;6.77;;
795;SDS011;381;48.770;9.188;2023-12-07T01:25:25;7.23;;;6.53;;
795;SDS011;381;48.770;9.188;2023-12-07T01:30:27;6.70;;;6.10;;
795;SDS011;381;48.770;9.188;2023-12-07T01:35:29;6.30;;;5.80;;
795;SDS011;381;48.770;9.188;2023-12-07T01:40:32;6.40;;;5.67;;
795;SDS011;381;48.770;9.188;2023-12-07T01:45:34;6.70;;;6.00;;
795;SDS011;381;48.770;9.188;2023-12-07T01:50:36;7.63;;;6.20;;
795;SDS011;381;48.770;9.188;2023-12-07T01:55:40;7.33;;;5.70;;
795;SDS011;381;48.770;9.188;2023-12-07T02:00:42;6.47;;;5.87;;
795;SDS011;381;48.770;9.188;2023-12-07T02:05:46;5.97;;;5.47;;
795;SDS011;381;48.770;9.188;2023-12-07T02:10:50;7.77;;;5.17;;
795;SDS011;381;48.770;9.188;2023-12-07T02:15:53;6.33;;;5.83;;
795;SDS011;381;48.770;9.188;2023-12-07T02:20:58;8.07;;;6.20;;
795;SDS011;381;48.770;9.188;2023-12-07T02:26:06;6.67;;;6.00;;
795;SDS011;381;48.770;9.188;2023-12-07T02:31:11;6.10;;;5.57;;
795;SDS011;381;48.770;9.188;2023-12-07T02:36:13;7.50;;;5.70;;
795;SDS011;381;48.770;9.188;2023-12-07T02:41:17;6.57;;;5.77;;
795;SDS011;381;48.770;9.188;2023-12-07T02:46:22;7.23;;;6.13;;
795;SDS011;381;48.770;9.188;2023-12-07T02:51:24;8.53;;;6.30;;
795;SDS011;381;48.770;9.188;2023-12-07T02:56:26;6.80;;;6.20;;
795;SDS011;381;48.770;9.188;2023-12-07T03:01:29;8.20;;;6.90;;
795;SDS011;381;48.770;9.188;2023-12-07T03:06:31;7.50;;;6.90;;
795;SDS011;381;48.770;9.188;2023-12-07T03:11:33;8.97;;;7.20;;
795;SDS011;381;48.770;9.188;2023-12-07T03:16:36;7.73;;;6.73;;
795;SDS011;381;48.770;9.188;2023-12-07T03:21:39;6.60;;;6.00;;
795;SDS011;381;48.770;9.188;2023-12-07T03:26:41;8.07;;;7.27;;
795;SDS011;381;48.770;9.188;2023-12-07T03:31:45;7.40;;;6.70;;
795;SDS011;381;48.770;9.188;2023-12-07T03:36:46;7.80;;;7.00;;
795;SDS011;381;48.770;9.188;2023-12-07T03:41:49;8.40;;;7.70;;
795;SDS011;381;48.770;9.188;2023-12-07T03:46:52;8.60;;;7.80;;
795;SDS011;381;48.770;9.188;2023-12-07T03:51:54;7.27;;;6.60;;
795;SDS011;381;48.770;9.188;2023-12-07T03:56:56;8.07;;;7.37;;
795;SDS011;381;48.770;9.188;2023-12-07T04:01:59;7.23;;;6.53;;
795;SDS011;381;48.770;9.188;2023-12-07T04:07:01;8.20;;;7.40;;
795;SDS011;381;48.770;9.188;2023-12-07T04:12:03;8.33;;;7.53;;
795;SDS011;381;48.770;9.188;2023-12-07T04:17:07;7.47;;;6.90;;
795;SDS011;381;48.770;9.188;2023-12-07T04:22:08;8.77;;;7.97;;
795;SDS011;381;48.770;9.188;2023-12-07T04:27:10;8.03;;;7.23;;
795;SDS011;381;48.770;9.188;2023-12-07T04:32:14;8.70;;;8.00;;
795;SDS011;381;48.770;9.188;2023-12-07T04:37:15;8.60;;;7.67;;
795;SDS011;381;48.770;9.188;2023-12-07T04:42:17;10.80;;;9.70;;
795;SDS011;381;48.770;9.188;2023-12-07T04:47:20;8.70;;;7.90;;
795;SDS011;381;48.770;9.188;2023-12-07T04:52:23;8.97;;;8.10;;
795;SDS011;381;48.770;9.188;2023-12-07T04:57:25;10.00;;;9.00;;
795;SDS011;381;48.770;9.188;2023-12-07T05:02:28;10.90;;;9.90;;
795;SDS011;381;48.770;9.188;2023-12-07T05:07:30;10.30;;;9.30;;
795;SDS011;381;48.770;9.188;2023-12-07T05:12:32;10.73;;;9.73;;
795;SDS011;381;48.770;9.188;2023-12-07T05:17:37;11.60;;;10.50;;
795;SDS011;381;48.770;9.188;2023-12-07T05:22:39;10.30;;;9.40;;
795;SDS011;381;48.770;9.188;2023-12-07T05:27:40;9.73;;;8.83;;
795;SDS011;381;48.770;9.188;2023-12-07T05:32:44;10.40;;;9.50;;
795;SDS011;381;48.770;9.188;2023-12-07T05:37:45;9.87;;;8.97;;
795;SDS011;381;48.770;9.188;2023-12-07T05:42:49;9.57;;;8.60;;
795;SDS011;381;48.770;9.188;2023-12-07T05:47:52;10.00;;;9.00;;
795;SDS011;381;48.770;9.188;2023-12-07T05:52:54;12.77;;;9.77;;
795;SDS011;381;48.770;9.188;2023-12-07T05:57:56;9.73;;;8.67;;
795;SDS011;381;48.770;9.188;2023-12-07T06:02:59;11.00;;;10.00;;
795;SDS011;381;48.770;9.188;2023-12-07T06:08:03;10.33;;;9.40;;
795;SDS011;381;48.770;9.188;2023-12-07T06:13:05;10.80;;;9.77;;
795;SDS011;381;48.770;9.188;2023-12-07T06:18:08;9.50;;;8.60;;
795;SDS011;381;48.770;9.188;2023-12-07T06:23:10;9.70;;;8.80;;
795;SDS011;381;48.770;9.188;2023-12-07T06:28:13;9.00;;;8.20;;
795;SDS011;381;48.770;9.188;2023-12-07T06:33:16;8.03;;;7.33;;
795;SDS011;381;48.770;9.188;2023-12-07T06:38:18;9.10;;;8.30;;
795;SDS011;381;48.770;9.188;2023-12-07T06:43:20;9.20;;;8.40;;
795;SDS011;381;48.770;9.188;2023-12-07T06:48:24;11.23;;;9.20;;
795;SDS011;381;48.770;9.188;2023-12-07T06:53:26;9.97;;;9.07;;
795;SDS011;381;48.770;9.188;2023-12-07T06:58:27;10.23;;;9.00;;
795;SDS011;381;48.770;9.188;2023-12-07T07:03:31;8.77;;;7.87;;
795;SDS011;381;48.770;9.188;2023-12-07T07:08:32;9.97;;;9.07;;
795;SDS011;381;48.770;9.188;2023-12-07T07:13:34;11.27;;;10.07;;
795;SDS011;381;48.770;9.188;2023-12-07T07:18:38;11.37;;;10.30;;
795;SDS011;381;48.770;9.188;2023-12-07T07:23:40;11.03;;;10.00;;
795;SDS011;381;48.770;9.188;2023-12-07T07:28:42;9.90;;;8.90;;
795;SDS011;381;48.770;9.188;2023-12-07T07:33:46;15.47;;;10.37;;
795;SDS011;381;48.770;9.188;2023-12-07T07:38:48;15.83;;;11.27;;
795;SDS011;381;48.770;9.188;2023-12-07T07:43:50;11.53;;;10.43;;
795;SDS011;381;48.770;9.188;2023-12-07T07:48:53;12.40;;;11.20;;
795;SDS011;381;48.770;9.188;2023-12-07T07:53:55;13.03;;;11.63;;
795;SDS011;381;48.770;9.188;2023-12-07T07:58:57;12.57;;;11.27;;
795;SDS011;381;48.770;9.188;2023-12-07T08:04:02;13.10;;;11.77;;
795;SDS011;381;48.770;9.188;2023-12-07T08:09:04;16.00;;;14.30;;
795;SDS011;381;48.770;9.188;2023-12-07T08:14:06;12.63;;;11.33;;
795;SDS011;381;48.770;9.188;2023-12-07T08:19:09;10.93;;;9.80;;
795;SDS011;381;48.770;9.188;2023-12-07T08:24:11;11.87;;;10.67;;
795;SDS011;381;48.770;9.188;2023-12-07T08:29:13;13.57;;;12.17;;
795;SDS011;381;48.770;9.188;2023-12-07T08:34:17;13.77;;;12.40;;
795;SDS011;381;48.770;9.188;2023-12-07T08:39:19;11.67;;;10.67;;
795;SDS011;381;48.770;9.188;2023-12-07T08:44:21;14.30;;;12.77;;
795;SDS011;381;48.770;9.188;2023-12-07T08:49:24;16.77;;;12.40;;
795;SDS011;381;48.770;9.188;2023-12-07T08:54:26;12.03;;;10.83;;
795;SDS011;381;48.770;9.188;2023-12-07T08:59:28;12.90;;;11.53;;
795;SDS011;381;48.770;9.188;2023-12-07T09:04:31;11.50;;;10.30;;
795;SDS011;381;48.770;9.188;2023-12-07T09:09:33;11.03;;;9.90;;
795;SDS011;381;48.770;9.188;2023-12-07T09:14:35;13.37;;;11.97;;
795;SDS011;381;48.770;9.188;2023-12-07T09:19:39;12.97;;;11.63;;
795;SDS011;381;48.770;9.188;2023-12-07T09:24:41;13.23;;;11.90;;
795;SDS011;381;48.770;9.188;2023-12-07T09:29:43;13.87;;;12.47;;
795;SDS011;381;48.770;9.188;2023-12-07T09:34:46;15.07;;;12.47;;
795;SDS011;381;48.770;9.188;2023-12-07T09:39:51;14.27;;;12.80;;
795;SDS011;381;48.770;9.188;2023-12-07T09:44:53;15.17;;;13.50;;
795;SDS011;381;48.770;9.188;2023-12-07T09:49:57;15.57;;;13.97;;
795;SDS011;381;48.770;9.188;2023-12-07T09:55:00;18.50;;;12.60;;
795;SDS011;381;48.770;9.188;2023-12-07T10:00:04;15.07;;;13.30;;
795;SDS011;381;48.770;9.188;2023-12-07T10:05:11;16.03;;;13.00;;
795;SDS011;381;48.770;9.188;2023-12-07T10:10:16;18.10;;;13.23;;
795;SDS011;381;48.770;9.188;2023-12-07T10:15:19;16.27;;;13.57;;
795;SDS011;381;48.770;9.188;2023-12-07T10:20:24;11.00;;;9.93;;
795;SDS011;381;48.770;9.188;2023-12-07T10:25:27;11.53;;;9.13;;
795;SDS011;381;48.770;9.188;2023-12-07T10:30:30;8.30;;;7.50;;
795;SDS011;381;48.770;9.188;2023-12-07T10:35:33;6.87;;;6.23;;
795;SDS011;381;48.770;9.188;2023-12-07T10:40:39;6.90;;;6.30;;
795;SDS011;381;48.770;9.188;2023-12-07T10:45:42;8.20;;;6.90;;
795;SDS011;381;48.770;9.188;2023-12-07T10:50:47;8.57;;;7.67;;
795;SDS011;381;48.770;9.188;2023-12-07T10:55:55;9.80;;;8.80;;
795;SDS011;381;48.770;9.188;2023-12-07T11:00:58;7.60;;;6.90;;
795;SDS011;381;48.770;9.188;2023-12-07T11:06:02;4.70;;;4.30;;
795;SDS011;381;48.770;9.188;2023-12-07T11:11:06;4.87;;;4.10;;
795;SDS011;381;48.770;9.188;2023-12-07T11:16:14;3.93;;;3.63;;
795;SDS011;381;48.770;9.188;2023-12-07T11:21:17;6.00;;;3.30;;
795;SDS011;381;48.770;9.188;2023-12-07T11:26:19;3.10;;;2.90;;
795;SDS011;381;48.770;9.188;2023-12-07T11:31:21;4.60;;;3.20;;
795;SDS011;381;48.770;9.188;2023-12-07T11:36:25;3.87;;;3.57;;
795;SDS011;381;48.770;9.188;2023-12-07T11:41:28;5.43;;;4.47;;
795;SDS011;381;48.770;9.188;2023-12-07T11:46:30;4.93;;;4.00;;
795;SDS011;381;48.770;9.188;2023-12-07T11:51:36;4.73;;;4.30;;
795;SDS011;381;48.770;9.188;2023-12-07T11:56:38;5.30;;;4.90;;
795;SDS011;381;48.770;9.188;2023-12-07T12:01:45;5.13;;;4.50;;
795;SDS011;381;48.770;9.188;2023-12-07T12:06:49;6.07;;;5.03;;
795;SDS011;381;48.770;9.188;2023-12-07T12:11:51;6.50;;;5.77;;
795;SDS011;381;48.770;9.188;2023-12-07T12:16:54;8.80;;;5.50;;
795;SDS011;381;48.770;9.188;2023-12-07T12:22:01;6.33;;;5.00;;
795;SDS011;381;48.770;9.188;2023-12-07T12:27:04;5.40;;;4.90;;
795;SDS011;381;48.770;9.188;2023-12-07T12:32:08;5.43;;;5.00;;
795;SDS011;381;48.770;9.188;2023-12-07T12:37:11;7.33;;;6.73;;
795;SDS011;381;48.770;9.188;2023-12-07T12:42:13;6.53;;;5.93;;
795;SDS011;381;48.770;9.188;2023-12-07T12:47:16;6.93;;;5.83;;
795;SDS011;381;48.770;9.188;2023-12-07T12:52:19;7.33;;;6.67;;
795;SDS011;381;48.770;9.188;2023-12-07T12:57:21;7.47;;;6.77;;
795;SDS011;381;48.770;9.188;2023-12-07T13:02:24;7.00;;;5.90;;
795;SDS011;381;48.770;9.188;2023-12-07T13:07:28;6.80;;;5.40;;
795;SDS011;381;48.770;9.188;2023-12-07T13:12:30;6.33;;;5.50;;
795;SDS011;381;48.770;9.188;2023-12-07T13:17:35;7.73;;;6.33;;
795;SDS011;381;48.770;9.188;2023-12-07T13:22:40;9.43;;;6.60;;
795;SDS011;381;48.770;9.188;2023-12-07T13:27:44;8.77;;;6.67;;
795;SDS011;381;48.770;9.188;2023-12-07T13:32:46;7.93;;;7.23;;
795;SDS011;381;48.770;9.188;2023-12-07T13:37:51;8.40;;;7.60;;
795;SDS011;381;48.770;9.188;2023-12-07T13:42:54;9.50;;;7.30;;
795;SDS011;381;48.770;9.188;2023-12-07T13:47:56;6.10;;;5.50;;
795;SDS011;381;48.770;9.188;2023-12-07T13:53:00;6.70;;;6.10;;
795;SDS011;381;48.770;9.188;2023-12-07T13:58:03;7.47;;;6.73;;
795;SDS011;381;48.770;9.188;2023-12-07T14:03:07;4.60;;;3.93;;
795;SDS011;381;48.770;9.188;2023-12-07T14:08:11;4.93;;;4.37;;
795;SDS011;381;48.770;9.188;2023-12-07T14:13:14;5.90;;;5.40;;
795;SDS011;381;48.770;9.188;2023-12-07T14:18:18;4.77;;;4.07;;
795;SDS011;381;48.770;9.188;2023-12-07T14:23:22;3.47;;;3.20;;
795;SDS011;381;48.770;9.188;2023-12-07T14:28:24;3.90;;;3.60;;
795;SDS011;381;48.770;9.188;2023-12-07T14:33:28;4.47;;;4.07;;
795;SDS011;381;48.770;9.188;2023-12-07T14:38:32;4.80;;;4.07;;
795;SDS011;381;48.770;9.188;2023-12-07T14:43:34;6.57;;;4.63;;
795;SDS011;381;48.770;9.188;2023-12-07T14:48:37;4.70;;;4.30;;
795;SDS011;381;48.770;9.188;2023-12-07T14:53:40;4.80;;;4.30;;
795;SDS011;381;48.770;9.188;2023-12-07T14:58:43;6.90;;;5.70;;
795;SDS011;381;48.770;9.188;2023-12-07T15:03:45;6.27;;;4.70;;
795;SDS011;381;48.770;9.188;2023-12-07T15:08:51;4.30;;;3.90;;
795;SDS011;381;48.770;9.188;2023-12-07T15:13:53;5.50;;;4.47;;
795;SDS011;381;48.770;9.188;2023-12-07T15:18:55;4.40;;;3.97;;
795;SDS011;381;48.770;9.188;2023-12-07T15:23:59;5.73;;;5.10;;
795;SDS011;381;48.770;9.188;2023-12-07T15:29:02;9.07;;;6.60;;
795;SDS011;381;48.770;9.188;2023-12-07T15:34:04;7.07;;;5.73;;
795;SDS011;381;48.770;9.188;2023-12-07T15:39:11;6.70;;;4.70;;
795;SDS011;381;48.770;9.188;2023-12-07T15:44:14;8.07;;;6.50;;
795;SDS011;381;48.770;9.188;2023-12-07T15:49:16;4.73;;;4.33;;
795;SDS011;381;48.770;9.188;2023-12-07T15:54:20;6.10;;;5.43;;
795;SDS011;381;48.770;9.188;2023-12-07T15:59:22;7.00;;;4.60;;
795;SDS011;381;48.770;9.188;2023-12-07T16:04:25;3.90;;;3.60;;
795;SDS011;381;48.770;9.188;2023-12-07T16:09:28;5.23;;;4.67;;
795;SDS011;381;48.770;9.188;2023-12-07T16:14:31;5.77;;;5.13;;
795;SDS011;381;48.770;9.188;2023-12-07T16:19:33;5.73;;;5.23;;
795;SDS011;381;48.770;9.188;2023-12-07T16:24:37;8.50;;;5.70;;
795;SDS011;381;48.770;9.188;2023-12-07T16:29:39;7.30;;;5.97;;
795;SDS011;381;48.770;9.188;2023-12-07T16:34:42;8.07;;;6.80;;
795;SDS011;381;48.770;9.188;2023-12-07T16:39:47;6.67;;;5.67;;
795;SDS011;381;48.770;9.188;2023-12-07T16:44:50;8.90;;;6.87;;
795;SDS011;381;48.770;9.188;2023-12-07T16:49:55;8.40;;;7.60;;
795;SDS011;381;48.770;9.188;2023-12-07T16:54:58;7.47;;;6.63;;
795;SDS011;381;48.770;9.188;2023-12-07T17:00:01;8.23;;;7.40;;
795;SDS011;381;48.770;9.188;2023-12-07T17:05:03;10.10;;;7.07;;
795;SDS011;381;48.770;9.188;2023-12-07T17:10:08;8.97;;;8.07;;
795;SDS011;381;48.770;9.188;2023-12-07T17:15:10;8.87;;;8.07;;
795;SDS011;381;48.770;9.188;2023-12-07T17:20:13;11.50;;;9.10;;
795;SDS011;381;48.770;9.188;2023-12-07T17:25:17;11.00;;;9.90;;
795;SDS011;381;48.770;9.188;2023-12-07T17:30:21;13.00;;;10.07;;
795;SDS011;381;48.770;9.188;2023-12-07T17:35:24;14.73;;;12.80;;
795;SDS011;381;48.770;9.188;2023-12-07T17:40:27;12.40;;;10.73;;
795;SDS011;381;48.770;9.188;2023-12-07T17:45:30;11.60;;;10.00;;
795;SDS011;381;48.770;9.188;2023-12-07T17:50:32;11.20;;;10.10;;
795;SDS011;381;48.770;9.188;2023-12-07T17:55:36;10.50;;;9.50;;
795;SDS011;381;48.770;9.188;2023-12-07T18:00:38;10.83;;;9.80;;
795;SDS011;381;48.770;9.188;2023-12-07T18:05:42;13.80;;;11.13;;
795;SDS011;381;48.770;9.188;2023-12-07T18:10:46;12.27;;;10.80;;
795;SDS011;381;48.770;9.188;2023-12-07T18:15:48;16.40;;;14.70;;
795;SDS011;381;48.770;9.188;2023-12-07T18:20:51;25.43;;;20.70;;
795;SDS011;381;48.770;9.188;2023-12-07T18:25:54;19.27;;;16.93;;
795;SDS011;381;48.770;9.188;2023-12-07T18:30:57;17.50;;;14.20;;
795;SDS011;381;48.770;9.188;2023-12-07T18:35:59;23.13;;;19.70;;
795;SDS011;381;48.770;9.188;2023-12-07T18:41:03;28.30;;;24.00;;
795;SDS011;381;48.770;9.188;2023-12-07T18:46:05;41.53;;;30.30;;
795;SDS011;381;48.770;9.188;2023-12-07T18:51:09;17.00;;;13.80;;
795;SDS011;381;48.770;9.188;2023-12-07T18:56:12;21.50;;;13.73;;
795;SDS011;381;48.770;9.188;2023-12-07T19:01:17;13.13;;;11.93;;
795;SDS011;381;48.770;9.188;2023-12-07T19:06:20;13.67;;;11.70;;
795;SDS011;381;48.770;9.188;2023-12-07T19:11:24;15.60;;;13.57;;
795;SDS011;381;48.770;9.188;2023-12-07T19:16:26;16.20;;;14.47;;
795;SDS011;381;48.770;9.188;2023-12-07T19:21:28;19.53;;;16.93;;
795;SDS011;381;48.770;9.188;2023-12-07T19:26:32;18.80;;;16.60;;
795;SDS011;381;48.770;9.188;2023-12-07T19:31:35;24.60;;;17.63;;
795;SDS011;381;48.770;9.188;2023-12-07T19:36:39;21.33;;;18.87;;
795;SDS011;381;48.770;9.188;2023-12-07T19:41:43;22.37;;;17.87;;
795;SDS011;381;48.770;9.188;2023-12-07T19:46:46;44.07;;;35.70;;
795;SDS011;381;48.770;9.188;2023-12-07T19:51:48;17.40;;;14.80;;
795;SDS011;381;48.770;9.188;2023-12-07T19:56:53;15.30;;;13.77;;
795;SDS011;381;48.770;9.188;2023-12-07T20:01:55;20.70;;;18.50;;
795;SDS011;381;48.770;9.188;2023-12-07T20:06:58;20.17;;;15.67;;
795;SDS011;381;48.770;9.188;2023-12-07T20:12:01;20.73;;;15.70;;
795;SDS011;381;48.770;9.188;2023-12-07T20:17:04;17.33;;;13.40;;
795;SDS011;381;48.770;9.188;2023-12-07T20:22:07;15.17;;;13.30;;
795;SDS011;381;48.770;9.188;2023-12-07T20:27:12;17.67;;;13.67;;
795;SDS011;381;48.770;9.188;2023-12-07T20:32:15;17.63;;;15.03;;
795;SDS011;381;48.770;9.188;2023-12-07T20:37:17;16.80;;;13.00;;
795;SDS011;381;48.770;9.188;2023-12-07T20:42:21;15.77;;;12.47;;
795;SDS011;381;48.770;9.188;2023-12-07T20:47:23;12.63;;;11.03;;
795;SDS011;381;48.770;9.188;2023-12-07T20:52:30;12.73;;;11.43;;
795;SDS011;381;48.770;9.188;2023-12-07T20:57:33;11.27;;;10.13;;
795;SDS011;381;48.770;9.188;2023-12-07T21:02:36;12.57;;;11.37;;
795;SDS011;381;48.770;9.188;2023-12-07T21:07:42;13.47;;;12.00;;
795;SDS011;381;48.770;9.188;2023-12-07T21:12:45;14.30;;;11.60;;
795;SDS011;381;48.770;9.188;2023-12-07T21:17:50;11.50;;;10.30;;
795;SDS011;381;48.770;9.188;2023-12-07T21:22:53;11.93;;;10.67;;
795;SDS011;381;48.770;9.188;2023-12-07T21:27:56;10.20;;;9.20;;
795;SDS011;381;48.770;9.188;2023-12-07T21:32:59;11.70;;;9.40;;
795;SDS011;381;48.770;9.188;2023-12-07T21:38:01;11.03;;;9.93;;
795;SDS011;381;48.770;9.188;2023-12-07T21:43:05;11.07;;;9.97;;
795;SDS011;381;48.770;9.188;2023-12-07T21:48:07;10.20;;;9.20;;
795;SDS011;381;48.770;9.188;2023-12-07T21:53:10;10.60;;;9.60;;
795;SDS011;381;48.770;9.188;2023-12-07T21:58:13;12.17;;;10.27;;
795;SDS011;381;48.770;9.188;2023-12-07T22:03:16;10.30;;;9.30;;
795;SDS011;381;48.770;9.188;2023-12-07T22:08:19;10.70;;;9.60;;
795;SDS011;381;48.770;9.188;2023-12-07T22:13:23;10.00;;;9.00;;
795;SDS011;381;48.770;9.188;2023-12-07T22:18:25;11.40;;;10.20;;
795;SDS011;381;48.770;9.188;2023-12-07T22:23:27;11.20;;;10.10;;
795;SDS011;381;48.770;9.188;2023-12-07T22:28:31;12.57;;;10.33;;
795;SDS011;381;48.770;9.188;2023-12-07T22:33:34;10.17;;;9.20;;
795;SDS011;381;48.770;9.188;2023-12-07T22:38:36;9.80;;;8.90;;
795;SDS011;381;48.770;9.188;2023-12-07T22:43:40;10.80;;;9.70;;
795;SDS011;381;48.770;9.188;2023-12-07T22:48:42;10.60;;;9.50;;
795;SDS011;381;48.770;9.188;2023-12-07T22:53:44;12.30;;;10.87;;
795;SDS011;381;48.770;9.188;2023-12-07T22:58:48;10.77;;;9.70;;
795;SDS011;381;48.770;9.188;2023-12-07T23:03:51;10.13;;;8.90;;
795;SDS011;381;48.770;9.188;2023-12-07T23:08:53;11.40;;;10.00;;
795;SDS011;381;48.770;9.188;2023-12-07T23:13:58;10.80;;;9.80;;
795;SDS011;381;48.770;9.188;2023-12-07T23:19:00;10.57;;;9.27;;
795;SDS011;381;48.770;9.188;2023-12-07T23:24:04;10.77;;;9.80;;
795;SDS011;381;48.770;9.188;2023-12-07T23:29:08;10.27;;;9.37;;
795;SDS011;381;48.770;9.188;2023-12-07T23:34:11;11.13;;;10.07;;
795;SDS011;381;48.770;9.188;2023-12-07T23:39:14;10.90;;;9.37;;
795;SDS011;381;48.770;9.188;2023-12-07T23:44:17;13.70;;;10.73;;
795;SDS011;381;48.770;9.188;2023-12-07T23:49:20;11.10;;;10.00;;
795;SDS011;381;48.770;9.188;2023-12-07T23:54:22;11.87;;;10.73;;
795;SDS011;381;48.770;9.188;2023-12-07T23:59:26;12.93;;;11.63;;
